^^
Saratoga-Weather Station Historical Data
Daily Summary for June 29, 2020 Units:  Metric    English   Both
Daily Weekly Monthly Yearly Custom
  High: Low: Average:
Temperature: 16.2 °C 10.5 °C 13.2 °C
Dew Point: 13.9 °C 10 °C 11.9 °C
Humidity: 97% 83% 93%
Wind Speed: 16.3km/h 0km/h 3.8km/h
Wind Gust: 20.9km/h - -
Wind- - West
Pressure: 1017.6 hPa 1012.9 hPa -
Precipitation: 3.3 mm    
Historical Graphs
 
 
Tabular Data for June 29, 2020
Time Temperature Dew Point Pressure Wind Wind Speed Wind Gust Humidity Rainfall Rate (Hourly) solar
00:02 10.5 °C 10 °C 1012.9 hPa Calm     97% 0.2 mm 0 W/m2
00:07 10.5 °C 10 °C 1012.9 hPa Calm     97% 0.2 mm 0 W/m2
00:12 10.6 °C 10.1 °C 1012.9 hPa Calm     97% 0.2 mm 0 W/m2
00:17 10.6 °C 10.1 °C 1012.9 hPa Calm     97% 0.2 mm 0 W/m2
00:22 10.6 °C 10.1 °C 1012.9 hPa Calm     97% 0.2 mm 0 W/m2
00:27 10.6 °C 10.1 °C 1012.9 hPa Calm     97% 0.0 mm 0 W/m2
00:32 10.6 °C 10.1 °C 1012.9 hPa Calm     97% 0.2 mm 0 W/m2
00:37 10.6 °C 10.1 °C 1012.9 hPa Calm     97% 0.2 mm 0 W/m2
00:42 10.6 °C 10.1 °C 1012.9 hPa Calm     97% 0.2 mm 0 W/m2
00:47 10.7 °C 10.2 °C 1012.9 hPa Calm     97% 0.5 mm 0 W/m2
00:52 10.7 °C 10.2 °C 1012.9 hPa Calm     97% 0.5 mm 0 W/m2
00:57 10.7 °C 10.2 °C 1012.9 hPa Calm   3.2 km/h 97% 0.5 mm 0 W/m2
01:02 10.7 °C 10.2 °C 1012.9 hPa Calm     97% 0.5 mm 0 W/m2
01:07 10.7 °C 10.2 °C 1012.9 hPa Calm   3.2 km/h 97% 0.5 mm 0 W/m2
01:12 10.7 °C 10.2 °C 1012.9 hPa Calm   1.6 km/h 97% 0.8 mm 0 W/m2
01:17 10.8 °C 10.3 °C 1012.9 hPa Calm     97% 1.0 mm 0 W/m2
01:22 10.8 °C 10.3 °C 1012.9 hPa West 1.4 km/h 1.6 km/h 97% 1.0 mm 0 W/m2
01:27 10.8 °C 10.3 °C 1012.9 hPa WNW 1.4 km/h 6.4 km/h 97% 1.0 mm 0 W/m2
01:32 10.8 °C 10.3 °C 1012.9 hPa West 1.4 km/h 4.8 km/h 97% 0.8 mm 0 W/m2
01:37 10.9 °C 10.4 °C 1012.9 hPa West 1.4 km/h 3.2 km/h 97% 1.0 mm 0 W/m2
01:42 10.9 °C 10.4 °C 1012.9 hPa West 3.2 km/h 11.3 km/h 97% 1.0 mm 0 W/m2
01:47 11 °C 10.5 °C 1012.9 hPa WSW 6.4 km/h 6.4 km/h 97% 0.8 mm 0 W/m2
01:52 11.1 °C 10.6 °C 1012.9 hPa WSW 1.4 km/h 6.4 km/h 97% 0.8 mm 0 W/m2
01:57 11.1 °C 10.6 °C 1012.9 hPa WSW 6.4 km/h 9.7 km/h 97% 0.5 mm 0 W/m2
02:02 11.2 °C 10.7 °C 1012.9 hPa WNW 3.2 km/h 6.4 km/h 97% 0.5 mm 0 W/m2
02:07 11.2 °C 10.7 °C 1012.9 hPa West 9.7 km/h 9.7 km/h 97% 0.5 mm 0 W/m2
02:12 11.2 °C 10.7 °C 1012.9 hPa SW 4.7 km/h 12.9 km/h 97% 0.5 mm 0 W/m2
02:17 11.3 °C 10.8 °C 1012.9 hPa WNW 4.7 km/h 19.3 km/h 97% 0.2 mm 0 W/m2
02:22 11.3 °C 10.8 °C 1012.9 hPa West 9.7 km/h 14.5 km/h 97% 0.2 mm 0 W/m2
02:27 11.4 °C 10.9 °C 1012.9 hPa WNW 11.1 km/h 19.3 km/h 97% 0.2 mm 0 W/m2
02:32 11.4 °C 10.9 °C 1012.9 hPa SW 7.9 km/h 12.9 km/h 97% 0.2 mm 0 W/m2
02:37 11.4 °C 10.9 °C 1012.9 hPa West 9.7 km/h 16.1 km/h 97% 0.0 mm 0 W/m2
02:42 11.5 °C 11 °C 1012.9 hPa WNW 3.2 km/h 19.3 km/h 97% 0.0 mm 0 W/m2
02:47 11.6 °C 11.1 °C 1012.9 hPa WNW 6.4 km/h 16.1 km/h 97% 0.0 mm 0 W/m2
02:52 11.6 °C 11.1 °C 1013.2 hPa WNW 7.9 km/h 19.3 km/h 97% 0.0 mm 0 W/m2
02:57 11.6 °C 11.1 °C 1013.2 hPa West 4.7 km/h 12.9 km/h 97% 0.0 mm 0 W/m2
03:03 11.7 °C 11.2 °C 1013.2 hPa WNW 16.3 km/h 19.3 km/h 97% 0.0 mm 0 W/m2
03:08 11.7 °C 11.2 °C 1013.2 hPa SW 7.9 km/h 14.5 km/h 97% 0.0 mm 0 W/m2
03:13 11.8 °C 11.3 °C 1013.2 hPa WSW 7.9 km/h 12.9 km/h 97% 0.0 mm 0 W/m2
03:18 11.8 °C 11.3 °C 1013.2 hPa WNW 6.4 km/h 12.9 km/h 97% 0.0 mm 0 W/m2
03:23 11.8 °C 11.3 °C 1013.2 hPa West 9.7 km/h 16.1 km/h 97% 0.0 mm 0 W/m2
03:28 11.9 °C 11.3 °C 1013.2 hPa WSW 11.1 km/h 11.3 km/h 96% 0.0 mm 0 W/m2
03:33 11.9 °C 11.3 °C 1013.5 hPa West 11.1 km/h 16.1 km/h 96% 0.0 mm 0 W/m2
03:38 12 °C 11.4 °C 1013.5 hPa West 9.7 km/h 17.7 km/h 96% 0.0 mm 0 W/m2
03:43 12.1 °C 11.6 °C 1013.5 hPa West 9.7 km/h 14.5 km/h 97% 0.0 mm 0 W/m2
03:48 12.1 °C 11.5 °C 1013.5 hPa West 9.7 km/h 17.7 km/h 96% 0.0 mm 0 W/m2
03:53 12.1 °C 11.5 °C 1013.5 hPa WNW 4.7 km/h 11.3 km/h 96% 0.0 mm 0 W/m2
03:58 12.2 °C 11.6 °C 1013.5 hPa West 6.4 km/h 16.1 km/h 96% 0.0 mm 0 W/m2
04:03 12.2 °C 11.6 °C 1013.5 hPa WNW 4.7 km/h 12.9 km/h 96% 0.0 mm 0 W/m2
04:08 12.2 °C 11.6 °C 1013.5 hPa WNW 4.7 km/h 14.5 km/h 96% 0.2 mm 0 W/m2
04:13 12.2 °C 11.6 °C 1013.5 hPa WSW 7.9 km/h 12.9 km/h 96% 0.2 mm 0 W/m2
04:18 12.2 °C 11.6 °C 1013.5 hPa WNW 6.4 km/h 16.1 km/h 96% 0.2 mm 0 W/m2
04:23 12.2 °C 11.6 °C 1013.5 hPa West 11.1 km/h 12.9 km/h 96% 0.2 mm 0 W/m2
04:28 12.1 °C 11.5 °C 1013.5 hPa West 3.2 km/h 14.5 km/h 96% 0.2 mm 0 W/m2
04:33 12.1 °C 11.5 °C 1013.5 hPa WSW 6.4 km/h 12.9 km/h 96% 0.2 mm 0 W/m2
04:38 12 °C 11.4 °C 1013.5 hPa West 6.4 km/h 16.1 km/h 96% 0.2 mm 0 W/m2
04:43 12 °C 11.4 °C 1013.5 hPa WNW 7.9 km/h 12.9 km/h 96% 0.2 mm 0 W/m2
04:48 11.9 °C 11.3 °C 1013.9 hPa WSW 7.9 km/h 12.9 km/h 96% 0.2 mm 0 W/m2
04:53 11.9 °C 11.3 °C 1013.9 hPa West 6.4 km/h 12.9 km/h 96% 0.2 mm 0 W/m2
04:58 11.9 °C 11.3 °C 1013.9 hPa SW 3.2 km/h 12.9 km/h 96% 0.2 mm 0 W/m2
05:03 11.9 °C 11.3 °C 1013.9 hPa West 6.4 km/h 11.3 km/h 96% 0.2 mm 0 W/m2
05:08 11.9 °C 11.3 °C 1013.9 hPa WSW 3.2 km/h 16.1 km/h 96% 0.0 mm 0 W/m2
05:13 11.9 °C 11.3 °C 1013.9 hPa WNW 4.7 km/h 12.9 km/h 96% 0.0 mm 0 W/m2
05:18 11.9 °C 11.3 °C 1013.9 hPa West 9.7 km/h 16.1 km/h 96% 0.0 mm 0 W/m2
05:23 11.8 °C 11.2 °C 1013.9 hPa West 11.1 km/h 12.9 km/h 96% 0.0 mm 0 W/m2
05:29 11.7 °C 10.9 °C 1014.2 hPa West 6.4 km/h 14.5 km/h 95% 0.0 mm 0 W/m2
05:34 11.6 °C 10.8 °C 1014.2 hPa West 6.4 km/h 11.3 km/h 95% 0.2 mm 0 W/m2
05:39 11.6 °C 10.8 °C 1014.2 hPa WNW 7.9 km/h 14.5 km/h 95% 0.2 mm 0 W/m2
05:44 11.4 °C 10.6 °C 1014.2 hPa WSW 14.3 km/h 17.7 km/h 95% 0.2 mm 0 W/m2
05:49 11.4 °C 10.6 °C 1014.2 hPa WNW 7.9 km/h 16.1 km/h 95% 0.2 mm 0 W/m2
05:54 11.4 °C 10.6 °C 1014.2 hPa WSW 7.9 km/h 12.9 km/h 95% 0.5 mm 0 W/m2
05:59 11.3 °C 10.5 °C 1014.2 hPa WNW 13 km/h 19.3 km/h 95% 0.5 mm 0 W/m2
06:04 11.3 °C 10.5 °C 1014.2 hPa West 11.1 km/h 17.7 km/h 95% 0.5 mm 0 W/m2
06:09 11.2 °C 10.4 °C 1014.2 hPa West 11.1 km/h 17.7 km/h 95% 0.5 mm 0 W/m2
06:14 11.2 °C 10.4 °C 1014.2 hPa West 13 km/h 20.9 km/h 95% 0.5 mm 0 W/m2
06:19 11.2 °C 10.4 °C 1014.2 hPa WSW 14.3 km/h 14.5 km/h 95% 0.5 mm 0 W/m2
06:24 11.1 °C 10.3 °C 1014.2 hPa WNW 13 km/h 17.7 km/h 95% 0.5 mm 0 W/m2
06:29 11.1 °C 10.3 °C 1014.2 hPa WSW 13 km/h 20.9 km/h 95% 0.5 mm 0 W/m2
06:34 11.1 °C 10.3 °C 1014.2 hPa West 13 km/h 19.3 km/h 95% 0.5 mm 0 W/m2
06:39 11 °C 10.2 °C 1014.6 hPa WNW 13 km/h 20.9 km/h 95% 1.0 mm 0 W/m2
06:44 11 °C 10.2 °C 1014.6 hPa WNW 7.9 km/h 12.9 km/h 95% 1.0 mm 0 W/m2
06:49 10.9 °C 10.1 °C 1014.6 hPa WNW 11.1 km/h 16.1 km/h 95% 1.0 mm 0 W/m2
06:54 10.9 °C 10.1 °C 1014.6 hPa WSW 14.3 km/h 17.7 km/h 95% 0.8 mm 0 W/m2
06:59 10.9 °C 10.1 °C 1014.6 hPa WNW 13 km/h 17.7 km/h 95% 0.8 mm 0 W/m2
07:04 10.9 °C 10 °C 1014.6 hPa SW 11.1 km/h 17.7 km/h 94% 0.8 mm 0 W/m2
07:09 10.9 °C 10.1 °C 1014.6 hPa SW 7.9 km/h 16.1 km/h 95% 0.8 mm 0 W/m2
07:14 10.9 °C 10.1 °C 1014.9 hPa West 11.1 km/h 17.7 km/h 95% 0.8 mm 0 W/m2
07:19 10.8 °C 10 °C 1014.9 hPa NW 14.3 km/h 17.7 km/h 95% 0.8 mm 0 W/m2
07:24 10.8 °C 10 °C 1014.9 hPa WNW 9.7 km/h 14.5 km/h 95% 0.8 mm 0 W/m2
07:29 10.8 °C 10 °C 1014.9 hPa WSW 11.1 km/h 14.5 km/h 95% 0.8 mm 0 W/m2
07:34 10.8 °C 10 °C 1014.9 hPa West 11.1 km/h 14.5 km/h 95% 0.5 mm 0 W/m2
07:39 10.8 °C 10 °C 1015.2 hPa West 9.7 km/h 19.3 km/h 95% 0.2 mm 0 W/m2
07:44 10.8 °C 10 °C 1015.2 hPa West 11.1 km/h 12.9 km/h 95% 0.5 mm 0 W/m2
07:49 10.8 °C 10 °C 1015.2 hPa West 3.2 km/h 20.9 km/h 95% 0.5 mm 0 W/m2
07:54 10.9 °C 10.1 °C 1015.2 hPa NW 4.7 km/h 14.5 km/h 95% 0.5 mm 0 W/m2
07:59 10.9 °C 10.1 °C 1015.2 hPa WSW 7.9 km/h 19.3 km/h 95% 0.5 mm 5 W/m2
08:04 10.9 °C 10.1 °C 1015.2 hPa West 4.7 km/h 9.7 km/h 95% 0.5 mm 7 W/m2
08:09 10.9 °C 10.1 °C 1015.6 hPa WNW 4.7 km/h 14.5 km/h 95% 0.5 mm 7 W/m2
08:14 10.9 °C 10.1 °C 1015.6 hPa WNW 9.7 km/h 17.7 km/h 95% 0.5 mm 9 W/m2
08:19 11 °C 10.2 °C 1015.6 hPa WNW 6.4 km/h 16.1 km/h 95% 0.5 mm 11 W/m2
08:24 11.1 °C 10.3 °C 1015.6 hPa West 11.1 km/h 11.3 km/h 95% 0.5 mm 9 W/m2
08:29 11.1 °C 10.3 °C 1015.6 hPa WNW 3.2 km/h 11.3 km/h 95% 0.5 mm 11 W/m2
08:34 11.1 °C 10.3 °C 1015.9 hPa West 6.4 km/h 11.3 km/h 95% 0.5 mm 12 W/m2
08:39 11.2 °C 10.4 °C 1015.6 hPa WSW 4.7 km/h 12.9 km/h 95% 0.5 mm 16 W/m2
08:44 11.2 °C 10.4 °C 1015.9 hPa WSW 4.7 km/h 9.7 km/h 95% 0.2 mm 14 W/m2
08:49 11.2 °C 10.4 °C 1015.9 hPa SW 1.4 km/h 3.2 km/h 95% 0.0 mm 14 W/m2
08:54 11.2 °C 10.4 °C 1015.9 hPa NW 3.2 km/h 6.4 km/h 95% 0.0 mm 16 W/m2
08:59 11.2 °C 10.4 °C 1016.3 hPa WSW 1.4 km/h 8 km/h 95% 0.0 mm 16 W/m2
09:04 11.3 °C 10.5 °C 1016.3 hPa Calm     95% 0.0 mm 16 W/m2
09:09 11.3 °C 10.5 °C 1016.3 hPa Calm   8 km/h 95% 0.0 mm 18 W/m2
09:14 11.3 °C 10.5 °C 1016.3 hPa Calm   4.8 km/h 95% 0.0 mm 21 W/m2
09:19 11.3 °C 10.5 °C 1016.3 hPa Calm     95% 0.0 mm 19 W/m2
09:24 11.3 °C 10.5 °C 1016.3 hPa West 1.4 km/h 3.2 km/h 95% 0.0 mm 18 W/m2
09:29 11.3 °C 10.5 °C 1016.3 hPa Calm   4.8 km/h 95% 0.0 mm 19 W/m2
09:34 11.3 °C 10.5 °C 1016.6 hPa Calm   1.6 km/h 95% 0.0 mm 19 W/m2
09:39 11.4 °C 10.6 °C 1016.6 hPa Calm   1.6 km/h 95% 0.0 mm 21 W/m2
09:44 11.4 °C 10.6 °C 1016.6 hPa Calm     95% 0.0 mm 26 W/m2
09:49 11.4 °C 10.6 °C 1016.6 hPa Calm     95% 0.0 mm 30 W/m2
09:54 11.4 °C 10.6 °C 1016.6 hPa NNW 4.7 km/h 4.8 km/h 95% 0.0 mm 28 W/m2
09:59 11.5 °C 10.7 °C 1016.9 hPa Calm   4.8 km/h 95% 0.0 mm 35 W/m2
10:04 11.5 °C 10.7 °C 1016.9 hPa WNW 1.4 km/h 4.8 km/h 95% 0.0 mm 39 W/m2
10:09 11.6 °C 10.8 °C 1016.9 hPa Calm   3.2 km/h 95% 0.0 mm 35 W/m2
10:14 11.6 °C 10.8 °C 1016.9 hPa West 3.2 km/h 6.4 km/h 95% 0.0 mm 33 W/m2
10:19 11.6 °C 10.7 °C 1016.9 hPa Calm   9.7 km/h 94% 0.0 mm 30 W/m2
10:24 11.6 °C 10.7 °C 1016.9 hPa SW 1.4 km/h 3.2 km/h 94% 0.0 mm 32 W/m2
10:29 11.6 °C 10.7 °C 1016.9 hPa SW 1.4 km/h 8 km/h 94% 0.0 mm 39 W/m2
10:34 11.7 °C 10.9 °C 1016.9 hPa Calm   3.2 km/h 95% 0.0 mm 47 W/m2
10:39 11.7 °C 10.9 °C 1016.9 hPa SW 1.4 km/h 1.6 km/h 95% 0.0 mm 69 W/m2
10:44 11.8 °C 11 °C 1016.9 hPa Calm     95% 0.0 mm 84 W/m2
10:49 11.8 °C 11 °C 1017.3 hPa WNW 4.7 km/h 4.8 km/h 95% 0.0 mm 88 W/m2
10:54 11.8 °C 11 °C 1017.3 hPa Calm   1.6 km/h 95% 0.0 mm 76 W/m2
10:59 11.9 °C 11.1 °C 1017.3 hPa Calm     95% 0.0 mm 72 W/m2
11:04 12.1 °C 11.3 °C 1017.3 hPa Calm     95% 0.0 mm 84 W/m2
11:09 12.1 °C 11.3 °C 1017.3 hPa WNW 1.4 km/h 6.4 km/h 95% 0.0 mm 91 W/m2
11:14 12.1 °C 11.2 °C 1017.3 hPa WNW 6.4 km/h 6.4 km/h 94% 0.0 mm 93 W/m2
11:19 12.2 °C 11.3 °C 1017.3 hPa Calm   4.8 km/h 94% 0.0 mm 109 W/m2
11:24 12.3 °C 11.4 °C 1017.3 hPa West 3.2 km/h 4.8 km/h 94% 0.0 mm 107 W/m2
11:29 12.4 °C 11.5 °C 1017.3 hPa Calm   1.6 km/h 94% 0.0 mm 130 W/m2
11:34 12.5 °C 11.6 °C 1017.3 hPa West 1.4 km/h 3.2 km/h 94% 0.0 mm 156 W/m2
11:39 12.6 °C 11.7 °C 1017.3 hPa Calm   3.2 km/h 94% 0.0 mm 172 W/m2
11:44 12.7 °C 11.8 °C 1017.3 hPa WNW 1.4 km/h 4.8 km/h 94% 0.0 mm 186 W/m2
11:49 12.9 °C 11.8 °C 1017.3 hPa WNW 3.2 km/h 3.2 km/h 93% 0.0 mm 190 W/m2
11:54 13 °C 11.9 °C 1017.6 hPa South 1.4 km/h 3.2 km/h 93% 0.0 mm 142 W/m2
11:59 13.2 °C 12.1 °C 1017.6 hPa Calm   3.2 km/h 93% 0.0 mm 111 W/m2
12:04 13.2 °C 11.9 °C 1017.3 hPa West 1.4 km/h 6.4 km/h 92% 0.0 mm 98 W/m2
12:09 13.2 °C 11.9 °C 1017.6 hPa Calm   1.6 km/h 92% 0.0 mm 90 W/m2
12:14 13.3 °C 12 °C 1017.3 hPa WNW 1.4 km/h 4.8 km/h 92% 0.0 mm 88 W/m2
12:19 13.3 °C 12 °C 1017.6 hPa West 1.4 km/h 4.8 km/h 92% 0.0 mm 98 W/m2
12:24 13.3 °C 12 °C 1017.3 hPa SW 1.4 km/h 3.2 km/h 92% 0.0 mm 105 W/m2
12:29 13.3 °C 12 °C 1017.3 hPa WNW 1.4 km/h 1.6 km/h 92% 0.0 mm 116 W/m2
12:34 13.3 °C 11.9 °C 1017.3 hPa West 6.4 km/h 8 km/h 91% 0.0 mm 125 W/m2
12:39 13.3 °C 11.9 °C 1017.6 hPa NW 6.4 km/h 6.4 km/h 91% 0.0 mm 151 W/m2
12:44 13.4 °C 12.1 °C 1017.3 hPa WNW 4.7 km/h 8 km/h 92% 0.0 mm 178 W/m2
12:53 13.6 °C 12.3 °C 1017.6 hPa West 3.2 km/h 6.4 km/h 92% 0.0 mm 250 W/m2
12:58 13.7 °C 12.4 °C 1017.6 hPa SSW 4.7 km/h 6.4 km/h 92% 0.0 mm 223 W/m2
13:03 13.9 °C 12.5 °C 1017.6 hPa WNW 1.4 km/h 8 km/h 91% 0.0 mm 230 W/m2
13:08 14 °C 12.6 °C 1017.6 hPa NW 4.7 km/h 12.9 km/h 91% 0.0 mm 251 W/m2
13:13 14.2 °C 12.8 °C 1017.6 hPa WNW 3.2 km/h 4.8 km/h 91% 0.0 mm 278 W/m2
13:18 14.2 °C 12.4 °C 1017.6 hPa WNW 3.2 km/h 12.9 km/h 89% 0.0 mm 290 W/m2
13:23 14.3 °C 12.7 °C 1017.6 hPa WNW 7.9 km/h 12.9 km/h 90% 0.0 mm 341 W/m2
13:28 14.4 °C 12.6 °C 1017.6 hPa WNW 4.7 km/h 11.3 km/h 89% 0.0 mm 322 W/m2
13:33 14.6 °C 12.8 °C 1017.6 hPa SW 3.2 km/h 11.3 km/h 89% 0.0 mm 367 W/m2
13:38 14.8 °C 12.8 °C 1017.6 hPa NW 4.7 km/h 12.9 km/h 88% 0.0 mm 390 W/m2
13:43 15.1 °C 13.3 °C 1017.6 hPa WNW 6.4 km/h 8 km/h 89% 0.0 mm 610 W/m2
13:48 15.2 °C 12.9 °C 1017.6 hPa WNW 11.1 km/h 11.3 km/h 86% 0.0 mm 299 W/m2
13:53 15.2 °C 12.9 °C 1017.3 hPa West 4.7 km/h 9.7 km/h 86% 0.0 mm 260 W/m2
13:58 15.2 °C 12.9 °C 1017.6 hPa West 4.7 km/h 11.3 km/h 86% 0.0 mm 190 W/m2
14:03 15.3 °C 13.1 °C 1017.6 hPa West 3.2 km/h 4.8 km/h 87% 0.0 mm 155 W/m2
14:08 15.2 °C 12.9 °C 1017.6 hPa West 1.4 km/h 6.4 km/h 86% 0.0 mm 292 W/m2
14:13 15.3 °C 13 °C 1017.3 hPa NW 6.4 km/h 8 km/h 86% 0.0 mm 258 W/m2
14:18 15.3 °C 13 °C 1017.3 hPa WNW 1.4 km/h 4.8 km/h 86% 0.0 mm 255 W/m2
14:23 15.5 °C 13.2 °C 1017.3 hPa Calm   3.2 km/h 86% 0.0 mm 174 W/m2
14:28 15.6 °C 13.4 °C 1017.3 hPa WNW 3.2 km/h 4.8 km/h 87% 0.0 mm 97 W/m2
14:33 15.7 °C 13.4 °C 1017.3 hPa NW 1.4 km/h 3.2 km/h 86% 0.0 mm 118 W/m2
14:38 15.7 °C 13.4 °C 1017.3 hPa West 1.4 km/h 3.2 km/h 86% 0.0 mm 190 W/m2
14:43 15.7 °C 13.4 °C 1017.3 hPa NW 1.4 km/h 4.8 km/h 86% 0.0 mm 204 W/m2
14:48 15.7 °C 13 °C 1017.3 hPa Calm   3.2 km/h 84% 0.0 mm 169 W/m2
14:53 15.7 °C 13.4 °C 1017.3 hPa Calm   4.8 km/h 86% 0.0 mm 190 W/m2
14:58 15.8 °C 13.5 °C 1017.3 hPa WSW 4.7 km/h 6.4 km/h 86% 0.0 mm 183 W/m2
15:03 15.9 °C 13.4 °C 1017.3 hPa WNW 3.2 km/h 4.8 km/h 85% 0.0 mm 221 W/m2
15:08 15.9 °C 13.4 °C 1017.3 hPa West 3.2 km/h 8 km/h 85% 0.0 mm 134 W/m2
15:14 15.8 °C 13.1 °C 1017.3 hPa West 4.7 km/h 11.3 km/h 84% 0.0 mm 141 W/m2
15:19 15.7 °C 13.2 °C 1017.3 hPa West 11.1 km/h 11.3 km/h 85% 0.0 mm 165 W/m2
15:24 15.7 °C 13.4 °C 1017.3 hPa West 3.2 km/h 4.8 km/h 86% 0.0 mm 98 W/m2
15:29 15.6 °C 13.1 °C 1016.9 hPa West 4.7 km/h 4.8 km/h 85% 0.0 mm 79 W/m2
15:34 15.6 °C 13.3 °C 1017.3 hPa West 3.2 km/h 6.4 km/h 86% 0.0 mm 116 W/m2
15:39 15.6 °C 13.3 °C 1017.3 hPa SW 3.2 km/h 9.7 km/h 86% 0.0 mm 207 W/m2
15:44 15.7 °C 13.4 °C 1016.9 hPa NNW 7.9 km/h 8 km/h 86% 0.0 mm 255 W/m2
15:49 15.9 °C 13.6 °C 1017.3 hPa NW 1.4 km/h 6.4 km/h 86% 0.0 mm 230 W/m2
15:54 16 °C 13.5 °C 1017.3 hPa WNW 1.4 km/h 6.4 km/h 85% 0.0 mm 163 W/m2
15:59 16.1 °C 13.6 °C 1017.3 hPa NW 6.4 km/h 6.4 km/h 85% 0.0 mm 116 W/m2
16:04 16.1 °C 13.4 °C 1017.3 hPa Calm   3.2 km/h 84% 0.0 mm 181 W/m2
16:09 16.1 °C 13.4 °C 1017.3 hPa SSW 4.7 km/h 9.7 km/h 84% 0.0 mm 167 W/m2
16:14 16.1 °C 13.4 °C 1017.3 hPa Calm   6.4 km/h 84% 0.0 mm 132 W/m2
16:19 16.1 °C 13.4 °C 1017.3 hPa West 6.4 km/h 6.4 km/h 84% 0.0 mm 107 W/m2
16:24 16 °C 13.1 °C 1017.3 hPa NW 3.2 km/h 6.4 km/h 83% 0.0 mm 72 W/m2
16:29 16 °C 13.3 °C 1016.9 hPa WNW 4.7 km/h 4.8 km/h 84% 0.0 mm 60 W/m2
16:34 16 °C 13.5 °C 1017.3 hPa West 1.4 km/h 6.4 km/h 85% 0.0 mm 81 W/m2
16:39 15.9 °C 13.4 °C 1017.3 hPa West 3.2 km/h 8 km/h 85% 0.0 mm 93 W/m2
16:44 15.9 °C 13.4 °C 1017.3 hPa West 6.4 km/h 9.7 km/h 85% 0.0 mm 72 W/m2
16:49 15.9 °C 13.4 °C 1017.3 hPa NNW 4.7 km/h 4.8 km/h 85% 0.0 mm 86 W/m2
16:54 15.9 °C 13.6 °C 1016.9 hPa SW 1.4 km/h 3.2 km/h 86% 0.0 mm 113 W/m2
16:59 16 °C 13.5 °C 1016.9 hPa Calm   1.6 km/h 85% 0.0 mm 135 W/m2
17:04 16.1 °C 13.6 °C 1016.9 hPa NW 1.4 km/h 4.8 km/h 85% 0.0 mm 114 W/m2
17:09 16.2 °C 13.7 °C 1016.9 hPa NNW 1.4 km/h 1.6 km/h 85% 0.0 mm 98 W/m2
17:19 16.2 °C 13.9 °C 1016.9 hPa West 4.7 km/h 6.4 km/h 86% 0.0 mm 113 W/m2
17:24 16.2 °C 13.7 °C 1016.9 hPa WNW 3.2 km/h 4.8 km/h 85% 0.0 mm 107 W/m2
17:29 16.2 °C 13.3 °C 1016.9 hPa North 1.4 km/h 6.4 km/h 83% 0.0 mm 93 W/m2
17:34 16.1 °C 13.4 °C 1016.9 hPa WNW 1.4 km/h 3.2 km/h 84% 0.0 mm 83 W/m2
17:39 16.1 °C 13.4 °C 1017.3 hPa Calm   6.4 km/h 84% 0.0 mm 79 W/m2
17:44 16.1 °C 13.6 °C 1017.3 hPa West 4.7 km/h 11.3 km/h 85% 0.0 mm 81 W/m2
17:49 16 °C 13.5 °C 1017.3 hPa West 3.2 km/h 6.4 km/h 85% 0.0 mm 86 W/m2
17:54 16.1 °C 13.6 °C 1017.3 hPa WNW 3.2 km/h 4.8 km/h 85% 0.0 mm 69 W/m2
17:59 15.9 °C 13.4 °C 1017.3 hPa West 3.2 km/h 9.7 km/h 85% 0.0 mm 44 W/m2
18:04 15.9 °C 13.4 °C 1017.3 hPa NW 3.2 km/h 6.4 km/h 85% 0.0 mm 30 W/m2
18:09 15.8 °C 13.3 °C 1017.3 hPa NNW 3.2 km/h 4.8 km/h 85% 0.0 mm 26 W/m2
18:14 15.8 °C 13.5 °C 1017.3 hPa NW 3.2 km/h 6.4 km/h 86% 0.0 mm 21 W/m2
18:20 15.7 °C 13.4 °C 1017.3 hPa Calm   4.8 km/h 86% 0.0 mm 19 W/m2
18:25 15.7 °C 13.4 °C 1017.3 hPa West 11.1 km/h 12.9 km/h 86% 0.0 mm 18 W/m2
18:30 15.5 °C 13.3 °C 1017.3 hPa WNW 1.4 km/h 3.2 km/h 87% 0.0 mm 18 W/m2
18:35 15.4 °C 13.4 °C 1017.3 hPa WNW 3.2 km/h 12.9 km/h 88% 0.0 mm 19 W/m2
18:40 15.3 °C 13.3 °C 1017.3 hPa SW 3.2 km/h 6.4 km/h 88% 0.0 mm 16 W/m2
18:45 15.2 °C 13.4 °C 1017.3 hPa WNW 4.7 km/h 4.8 km/h 89% 0.0 mm 16 W/m2
18:50 15.1 °C 13.3 °C 1017.3 hPa West 1.4 km/h 3.2 km/h 89% 0.0 mm 14 W/m2
18:55 15 °C 13.4 °C 1017.3 hPa NW 1.4 km/h 4.8 km/h 90% 0.0 mm 11 W/m2
19:00 14.9 °C 13.3 °C 1017.3 hPa WSW 1.4 km/h 3.2 km/h 90% 0.0 mm 9 W/m2
19:05 14.9 °C 13.3 °C 1017.3 hPa WNW 1.4 km/h 1.6 km/h 90% 0.0 mm 7 W/m2
19:10 14.9 °C 13.4 °C 1017.3 hPa WNW 1.4 km/h 6.4 km/h 91% 0.0 mm 5 W/m2
19:15 14.8 °C 13.3 °C 1017.3 hPa NW 3.2 km/h 6.4 km/h 91% 0.0 mm 0 W/m2
19:20 14.8 °C 13.3 °C 1017.3 hPa NW 1.4 km/h 1.6 km/h 91% 0.0 mm 0 W/m2
19:25 14.8 °C 13.3 °C 1017.3 hPa Calm   6.4 km/h 91% 0.0 mm 0 W/m2
19:30 14.8 °C 13.3 °C 1017.3 hPa NNW 3.2 km/h 3.2 km/h 91% 0.0 mm 0 W/m2
19:35 14.8 °C 13.3 °C 1017.3 hPa NW 3.2 km/h 4.8 km/h 91% 0.0 mm 0 W/m2
19:40 14.8 °C 13.3 °C 1017.3 hPa WNW 4.7 km/h 6.4 km/h 91% 0.0 mm 0 W/m2
19:45 14.8 °C 13.3 °C 1017.3 hPa NW 6.4 km/h 6.4 km/h 91% 0.0 mm 0 W/m2
19:50 14.8 °C 13.3 °C 1017.3 hPa WNW 3.2 km/h 4.8 km/h 91% 0.0 mm 0 W/m2
19:55 14.8 °C 13.3 °C 1017.3 hPa WNW 1.4 km/h 6.4 km/h 91% 0.0 mm 0 W/m2
20:00 14.8 °C 13.3 °C 1017.3 hPa WNW 3.2 km/h 6.4 km/h 91% 0.0 mm 0 W/m2
20:05 14.8 °C 13.3 °C 1017.3 hPa West 3.2 km/h 9.7 km/h 91% 0.0 mm 0 W/m2
20:10 14.8 °C 13.3 °C 1017.3 hPa WNW 3.2 km/h 4.8 km/h 91% 0.0 mm 0 W/m2
20:15 14.8 °C 13.3 °C 1017.3 hPa Calm   4.8 km/h 91% 0.0 mm 0 W/m2
20:20 14.8 °C 13.3 °C 1017.3 hPa WNW 3.2 km/h 3.2 km/h 91% 0.0 mm 0 W/m2
20:25 14.7 °C 13.2 °C 1017.3 hPa West 1.4 km/h 1.6 km/h 91% 0.0 mm 0 W/m2
20:30 14.7 °C 13.2 °C 1017.6 hPa NW 3.2 km/h 3.2 km/h 91% 0.0 mm 0 W/m2
20:35 14.7 °C 13.2 °C 1017.6 hPa Calm   1.6 km/h 91% 0.0 mm 0 W/m2
20:40 14.7 °C 13.2 °C 1017.6 hPa Calm     91% 0.0 mm 0 W/m2
20:45 14.7 °C 13.2 °C 1017.6 hPa Calm   1.6 km/h 91% 0.0 mm 0 W/m2
20:50 14.6 °C 13.3 °C 1017.6 hPa Calm   1.6 km/h 92% 0.0 mm 0 W/m2
20:55 14.6 °C 13.3 °C 1017.6 hPa Calm   1.6 km/h 92% 0.0 mm 0 W/m2
21:00 14.6 °C 13.3 °C 1017.6 hPa Calm     92% 0.0 mm 0 W/m2
21:05 14.5 °C 13.2 °C 1017.3 hPa Calm     92% 0.0 mm 0 W/m2
21:10 14.4 °C 13.1 °C 1017.3 hPa Calm     92% 0.0 mm 0 W/m2
21:15 14.4 °C 13.3 °C 1017.3 hPa Calm     93% 0.0 mm 0 W/m2
21:20 14.4 °C 13.3 °C 1017.6 hPa Calm     93% 0.0 mm 0 W/m2
21:25 14.3 °C 13.2 °C 1017.6 hPa Calm     93% 0.0 mm 0 W/m2
21:30 14.3 °C 13.2 °C 1017.6 hPa North 1.4 km/h 3.2 km/h 93% 0.0 mm 0 W/m2
21:35 14.3 °C 13.2 °C 1017.6 hPa Calm   1.6 km/h 93% 0.0 mm 0 W/m2
21:41 14.3 °C 13.2 °C 1017.6 hPa Calm     93% 0.0 mm 0 W/m2
21:46 14.3 °C 13.2 °C 1017.6 hPa North 1.4 km/h 3.2 km/h 93% 0.0 mm 0 W/m2
21:51 14.3 °C 13.2 °C 1017.6 hPa Calm   1.6 km/h 93% 0.0 mm 0 W/m2
21:56 14.3 °C 13.3 °C 1017.6 hPa Calm     94% 0.0 mm 0 W/m2
22:01 14.3 °C 13.3 °C 1017.6 hPa Calm     94% 0.0 mm 0 W/m2
22:06 14.3 °C 13.3 °C 1017.6 hPa Calm   1.6 km/h 94% 0.0 mm 0 W/m2
22:11 14.3 °C 13.3 °C 1017.6 hPa ENE 1.4 km/h 3.2 km/h 94% 0.0 mm 0 W/m2
22:16 14.2 °C 13.2 °C 1017.6 hPa Calm   3.2 km/h 94% 0.0 mm 0 W/m2
22:21 14.2 °C 13.2 °C 1017.6 hPa Calm   1.6 km/h 94% 0.0 mm 0 W/m2
22:26 14.2 °C 13.2 °C 1017.6 hPa Calm     94% 0.0 mm 0 W/m2
22:31 14.2 °C 13.2 °C 1017.6 hPa Calm     94% 0.0 mm 0 W/m2
22:36 14.2 °C 13.2 °C 1017.6 hPa SSW 1.4 km/h 3.2 km/h 94% 0.0 mm 0 W/m2
22:41 14.1 °C 13.1 °C 1017.6 hPa Calm   3.2 km/h 94% 0.0 mm 0 W/m2
22:46 14.1 °C 13.1 °C 1017.6 hPa NW 3.2 km/h 3.2 km/h 94% 0.0 mm 0 W/m2
22:51 14.1 °C 13.1 °C 1017.6 hPa NE 1.4 km/h 4.8 km/h 94% 0.0 mm 0 W/m2
22:56 14.1 °C 13.1 °C 1017.6 hPa East 4.7 km/h 4.8 km/h 94% 0.0 mm 0 W/m2
23:01 14.1 °C 13.1 °C 1017.6 hPa East 1.4 km/h 3.2 km/h 94% 0.0 mm 0 W/m2
23:06 14.1 °C 13.1 °C 1017.6 hPa Calm   1.6 km/h 94% 0.0 mm 0 W/m2
23:11 14.1 °C 13.1 °C 1017.6 hPa Calm   1.6 km/h 94% 0.0 mm 0 W/m2
23:16 14.1 °C 13.1 °C 1017.6 hPa Calm   3.2 km/h 94% 0.0 mm 0 W/m2
23:21 14.1 °C 13.1 °C 1017.6 hPa Calm   1.6 km/h 94% 0.0 mm 0 W/m2
23:26 14.1 °C 13.1 °C 1017.3 hPa ESE 1.4 km/h 3.2 km/h 94% 0.0 mm 0 W/m2
23:31 14.1 °C 13.1 °C 1017.3 hPa Calm   3.2 km/h 94% 0.0 mm 0 W/m2
23:36 14.1 °C 13.1 °C 1017.3 hPa NE 1.4 km/h 3.2 km/h 94% 0.0 mm 0 W/m2
23:41 14.1 °C 13.1 °C 1017.3 hPa Calm   3.2 km/h 94% 0.0 mm 0 W/m2
23:46 14.1 °C 13.1 °C 1017.3 hPa North 1.4 km/h 1.6 km/h 94% 0.0 mm 0 W/m2
23:51 14.2 °C 13.2 °C 1017.3 hPa Calm   1.6 km/h 94% 0.0 mm 0 W/m2
23:56 14.1 °C 13.1 °C 1017.3 hPa Calm     94% 0.0 mm 0 W/m2
Juneau County Weather
Compliments of Weather Underground - 4 mb